バンダルスリブガワン の空港の天気 - METARとTAF

ブルネイ国際空港 ( WBSB / BWN ) - ブルネイ バンダルスリブガワン
飛行場実況気象(Metar)
観測時間03/23 02:00 BNT (03/22 18:00 UTC)
風向・風速南南東 2m/s
視程10km以上
天気現象弱い雨
少しの雲 雲底高度 90m
全天の8割程度の雲 雲底高度 4570m
気温25℃
湿度100%
気圧1010hPa
METARWBSB 221800Z 15003KT 9999 -RA FEW003 BKN150 25/25 Q1010 NOSIG
過去の天気等 Google飛行場航空写真 Wunderground天気予報

過去48時間のMETAR

飛行場予報(TAF)
発表時間: 3/23 01:00 BNT (3/22 17:00 UTC)
予報対象時間: 23日2時 BNT ~ 24日8時 BNT
風向・風速南南東 2m/s
視程10km以上
少しの雲 雲底高度 90m
23日2時 BNT ~ 23日4時 BNT に一時的に
視程9000m
天気現象弱い雨
23日8時 BNT ~ 23日10時 BNT に徐々に
少しの雲 雲底高度 460m
TAF WBSB 221700Z 2218/2400 16004KT 9999 FEW003
TEMPO 2218/2220 9000 -RA
BECMG 2300/2302 FEW015